sensor_id;sensor_type;location;lat;lon;timestamp;pressure;altitude;pressure_sealevel;temperature;humidity
47374;BME280;33123;50.118;10.272;2023-02-19T00:01:19;97928.72;;;11.53;68.32
47374;BME280;33123;50.118;10.272;2023-02-19T00:03:49;97938.41;;;11.48;68.58
47374;BME280;33123;50.118;10.272;2023-02-19T00:06:17;97938.19;;;11.49;68.46
47374;BME280;33123;50.118;10.272;2023-02-19T00:08:45;97929.69;;;11.47;68.59
47374;BME280;33123;50.118;10.272;2023-02-19T00:11:13;97926.53;;;11.45;68.62
47374;BME280;33123;50.118;10.272;2023-02-19T00:13:42;97904.63;;;11.45;68.06
47374;BME280;33123;50.118;10.272;2023-02-19T00:16:11;97908.19;;;11.33;68.92
47374;BME280;33123;50.118;10.272;2023-02-19T00:18:39;97911.81;;;11.49;68.35
47374;BME280;33123;50.118;10.272;2023-02-19T00:21:07;97918.22;;;11.36;68.84
47374;BME280;33123;50.118;10.272;2023-02-19T00:23:34;97902.75;;;11.23;69.14
47374;BME280;33123;50.118;10.272;2023-02-19T00:26:01;97905.16;;;11.47;68.76
47374;BME280;33123;50.118;10.272;2023-02-19T00:28:28;97912.66;;;11.55;68.44
47374;BME280;33123;50.118;10.272;2023-02-19T00:30:55;97917.38;;;11.53;68.43
47374;BME280;33123;50.118;10.272;2023-02-19T00:33:21;97911.81;;;11.49;68.56
47374;BME280;33123;50.118;10.272;2023-02-19T00:35:48;97894.06;;;11.45;68.44
47374;BME280;33123;50.118;10.272;2023-02-19T00:38:16;97893.31;;;11.49;68.46
47374;BME280;33123;50.118;10.272;2023-02-19T00:40:42;97899.09;;;11.46;68.53
47374;BME280;33123;50.118;10.272;2023-02-19T00:43:09;97898.47;;;11.39;68.77
47374;BME280;33123;50.118;10.272;2023-02-19T00:45:35;97899.03;;;11.41;68.47
47374;BME280;33123;50.118;10.272;2023-02-19T00:48:02;97899.28;;;11.40;68.81
47374;BME280;33123;50.118;10.272;2023-02-19T00:50:29;97885.28;;;11.39;68.68
47374;BME280;33123;50.118;10.272;2023-02-19T00:52:55;97874.78;;;11.22;68.99
47374;BME280;33123;50.118;10.272;2023-02-19T00:55:23;97877.59;;;11.37;68.79
47374;BME280;33123;50.118;10.272;2023-02-19T00:57:50;97870.47;;;11.38;68.83
47374;BME280;33123;50.118;10.272;2023-02-19T01:00:17;97866.94;;;11.27;68.93
47374;BME280;33123;50.118;10.272;2023-02-19T01:02:43;97860.91;;;11.32;68.99
47374;BME280;33123;50.118;10.272;2023-02-19T01:05:10;97850.72;;;11.41;68.98
47374;BME280;33123;50.118;10.272;2023-02-19T01:07:36;97854.03;;;11.31;68.99
47374;BME280;33123;50.118;10.272;2023-02-19T01:10:04;97853.09;;;11.42;68.67
47374;BME280;33123;50.118;10.272;2023-02-19T01:12:32;97803.97;;;10.92;69.07
47374;BME280;33123;50.118;10.272;2023-02-19T01:14:59;97839.84;;;11.37;68.56
47374;BME280;33123;50.118;10.272;2023-02-19T01:17:25;97845.25;;;11.47;67.96
47374;BME280;33123;50.118;10.272;2023-02-19T01:19:52;97848.81;;;11.36;68.94
47374;BME280;33123;50.118;10.272;2023-02-19T01:22:18;97851.34;;;11.26;69.33
47374;BME280;33123;50.118;10.272;2023-02-19T01:24:45;97856.06;;;11.24;69.45
47374;BME280;33123;50.118;10.272;2023-02-19T01:27:12;97852.44;;;11.30;69.20
47374;BME280;33123;50.118;10.272;2023-02-19T01:29:41;97860.44;;;11.35;69.23
47374;BME280;33123;50.118;10.272;2023-02-19T01:32:08;97834.97;;;11.24;69.68
47374;BME280;33123;50.118;10.272;2023-02-19T01:34:34;97834.97;;;11.24;69.70
47374;BME280;33123;50.118;10.272;2023-02-19T01:37:01;97826.88;;;11.08;70.15
47374;BME280;33123;50.118;10.272;2023-02-19T01:39:28;97831.34;;;11.30;69.74
47374;BME280;33123;50.118;10.272;2023-02-19T01:41:54;97829.81;;;11.34;69.37
47374;BME280;33123;50.118;10.272;2023-02-19T01:47:28;97825.69;;;11.21;70.09
47374;BME280;33123;50.118;10.272;2023-02-19T01:49:56;97818.63;;;11.27;69.78
47374;BME280;33123;50.118;10.272;2023-02-19T01:52:26;97821.53;;;11.25;69.84
47374;BME280;33123;50.118;10.272;2023-02-19T01:54:56;97807.59;;;11.30;69.60
47374;BME280;33123;50.118;10.272;2023-02-19T01:57:25;97812.13;;;11.34;69.55
47374;BME280;33123;50.118;10.272;2023-02-19T01:59:56;97791.75;;;11.30;69.38
47374;BME280;33123;50.118;10.272;2023-02-19T02:02:24;97801.22;;;11.26;69.48
47374;BME280;33123;50.118;10.272;2023-02-19T02:04:54;97803.06;;;11.03;70.39
47374;BME280;33123;50.118;10.272;2023-02-19T02:07:21;97799.50;;;11.15;70.08
47374;BME280;33123;50.118;10.272;2023-02-19T02:10:06;97803.38;;;11.29;69.60
47374;BME280;33123;50.118;10.272;2023-02-19T02:12:49;97807.28;;;11.26;69.85
47374;BME280;33123;50.118;10.272;2023-02-19T02:15:17;97792.22;;;11.22;70.04
47374;BME280;33123;50.118;10.272;2023-02-19T02:17:50;97792.56;;;11.30;69.36
47374;BME280;33123;50.118;10.272;2023-02-19T02:20:33;97780.66;;;11.28;69.73
47374;BME280;33123;50.118;10.272;2023-02-19T02:23:08;97773.09;;;11.36;69.36
47374;BME280;33123;50.118;10.272;2023-02-19T02:25:48;97769.53;;;11.26;69.29
47374;BME280;33123;50.118;10.272;2023-02-19T02:28:36;97772.56;;;11.34;69.53
47374;BME280;33123;50.118;10.272;2023-02-19T02:31:14;97773.50;;;11.01;70.09
47374;BME280;33123;50.118;10.272;2023-02-19T02:33:47;97772.91;;;11.16;69.93
47374;BME280;33123;50.118;10.272;2023-02-19T02:36:19;97780.25;;;11.41;69.37
47374;BME280;33123;50.118;10.272;2023-02-19T02:38:48;97774.44;;;11.39;69.27
47374;BME280;33123;50.118;10.272;2023-02-19T02:41:17;97771.97;;;11.27;69.47
47374;BME280;33123;50.118;10.272;2023-02-19T02:43:44;97775.00;;;11.41;69.07
47374;BME280;33123;50.118;10.272;2023-02-19T02:46:15;97772.94;;;11.48;68.90
47374;BME280;33123;50.118;10.272;2023-02-19T02:48:47;97771.59;;;11.46;68.71
47374;BME280;33123;50.118;10.272;2023-02-19T02:51:20;97768.22;;;11.50;68.72
47374;BME280;33123;50.118;10.272;2023-02-19T02:53:51;97762.09;;;11.45;68.91
47374;BME280;33123;50.118;10.272;2023-02-19T02:56:36;97749.94;;;11.44;68.78
47374;BME280;33123;50.118;10.272;2023-02-19T02:59:07;97737.69;;;11.32;68.66
47374;BME280;33123;50.118;10.272;2023-02-19T03:01:38;97755.88;;;11.56;68.68
47374;BME280;33123;50.118;10.272;2023-02-19T03:04:28;97760.59;;;11.54;68.91
47374;BME280;33123;50.118;10.272;2023-02-19T03:06:59;97752.44;;;11.55;69.03
47374;BME280;33123;50.118;10.272;2023-02-19T03:09:33;97758.78;;;11.59;68.67
47374;BME280;33123;50.118;10.272;2023-02-19T03:12:07;97749.75;;;11.50;69.05
47374;BME280;33123;50.118;10.272;2023-02-19T03:14:55;97768.91;;;11.41;69.19
47374;BME280;33123;50.118;10.272;2023-02-19T03:17:47;97759.22;;;11.46;69.15
47374;BME280;33123;50.118;10.272;2023-02-19T03:20:36;97757.63;;;11.45;68.94
47374;BME280;33123;50.118;10.272;2023-02-19T03:23:06;97745.97;;;11.41;68.90
47374;BME280;33123;50.118;10.272;2023-02-19T03:28:59;97749.75;;;11.50;68.96
47374;BME280;33123;50.118;10.272;2023-02-19T03:31:45;97731.72;;;11.42;68.80
47374;BME280;33123;50.118;10.272;2023-02-19T03:34:16;97743.69;;;11.50;68.67
47374;BME280;33123;50.118;10.272;2023-02-19T03:36:51;97741.38;;;11.58;68.47
47374;BME280;33123;50.118;10.272;2023-02-19T03:39:21;97745.22;;;11.46;68.97
47374;BME280;33123;50.118;10.272;2023-02-19T03:41:55;97741.16;;;11.38;69.27
47374;BME280;33123;50.118;10.272;2023-02-19T03:44:28;97703.53;;;11.21;68.78
47374;BME280;33123;50.118;10.272;2023-02-19T03:47:03;97737.50;;;11.39;68.71
47374;BME280;33123;50.118;10.272;2023-02-19T03:49:38;97738.69;;;11.53;68.52
47374;BME280;33123;50.118;10.272;2023-02-19T03:52:12;97718.38;;;11.27;68.80
47374;BME280;33123;50.118;10.272;2023-02-19T03:54:48;97733.31;;;11.43;68.86
47374;BME280;33123;50.118;10.272;2023-02-19T03:57:20;97735.41;;;11.41;68.92
47374;BME280;33123;50.118;10.272;2023-02-19T03:59:50;97727.78;;;11.45;68.81
47374;BME280;33123;50.118;10.272;2023-02-19T04:02:25;97738.31;;;11.40;69.05
47374;BME280;33123;50.118;10.272;2023-02-19T04:04:59;97736.00;;;11.48;68.62
47374;BME280;33123;50.118;10.272;2023-02-19T04:07:32;97732.31;;;11.49;68.52
47374;BME280;33123;50.118;10.272;2023-02-19T04:10:02;97743.47;;;11.56;68.52
47374;BME280;33123;50.118;10.272;2023-02-19T04:12:29;97750.19;;;11.42;68.52
47374;BME280;33123;50.118;10.272;2023-02-19T04:14:58;97758.19;;;11.52;68.19
47374;BME280;33123;50.118;10.272;2023-02-19T04:17:30;97762.09;;;11.45;68.28
47374;BME280;33123;50.118;10.272;2023-02-19T04:20:02;97767.97;;;11.52;68.12
47374;BME280;33123;50.118;10.272;2023-02-19T04:22:30;97765.31;;;11.52;68.27
47374;BME280;33123;50.118;10.272;2023-02-19T04:24:56;97764.91;;;11.38;68.70
47374;BME280;33123;50.118;10.272;2023-02-19T04:27:23;97765.75;;;11.44;68.62
47374;BME280;33123;50.118;10.272;2023-02-19T04:29:50;97773.66;;;11.39;69.61
47374;BME280;33123;50.118;10.272;2023-02-19T04:32:16;97778.09;;;11.38;69.89
47374;BME280;33123;50.118;10.272;2023-02-19T04:34:43;97769.75;;;11.46;69.57
47374;BME280;33123;50.118;10.272;2023-02-19T04:37:11;97752.59;;;11.17;69.91
47374;BME280;33123;50.118;10.272;2023-02-19T04:39:38;97773.19;;;11.47;69.49
47374;BME280;33123;50.118;10.272;2023-02-19T04:42:04;97768.56;;;11.32;70.02
47374;BME280;33123;50.118;10.272;2023-02-19T04:44:32;97772.28;;;11.36;70.76
47374;BME280;33123;50.118;10.272;2023-02-19T04:46:58;97773.66;;;11.39;70.86
47374;BME280;33123;50.118;10.272;2023-02-19T04:49:25;97766.97;;;11.31;71.26
47374;BME280;33123;50.118;10.272;2023-02-19T04:51:51;97774.69;;;11.37;71.19
47374;BME280;33123;50.118;10.272;2023-02-19T04:54:19;97775.41;;;11.28;71.53
47374;BME280;33123;50.118;10.272;2023-02-19T04:56:46;97766.44;;;11.29;71.51
47374;BME280;33123;50.118;10.272;2023-02-19T04:59:15;97763.28;;;11.32;71.25
47374;BME280;33123;50.118;10.272;2023-02-19T05:01:41;97777.03;;;11.34;71.16
47374;BME280;33123;50.118;10.272;2023-02-19T05:04:08;97774.22;;;11.19;71.24
47374;BME280;33123;50.118;10.272;2023-02-19T05:06:35;97770.84;;;11.23;71.20
47374;BME280;33123;50.118;10.272;2023-02-19T05:09:02;97755.81;;;11.24;71.13
47374;BME280;33123;50.118;10.272;2023-02-19T05:11:30;97764.22;;;11.21;70.56
47374;BME280;33123;50.118;10.272;2023-02-19T05:13:56;97764.22;;;11.21;70.52
47374;BME280;33123;50.118;10.272;2023-02-19T05:16:24;97771.91;;;11.22;70.39
47374;BME280;33123;50.118;10.272;2023-02-19T05:18:50;97771.78;;;11.12;70.45
47374;BME280;33123;50.118;10.272;2023-02-19T05:21:17;97790.06;;;11.19;70.39
47374;BME280;33123;50.118;10.272;2023-02-19T05:23:44;97779.69;;;11.12;70.65
47374;BME280;33123;50.118;10.272;2023-02-19T05:26:13;97788.22;;;11.19;70.05
47374;BME280;33123;50.118;10.272;2023-02-19T05:28:42;97792.81;;;11.07;70.45
47374;BME280;33123;50.118;10.272;2023-02-19T05:31:10;97791.03;;;11.13;70.17
47374;BME280;33123;50.118;10.272;2023-02-19T05:33:37;97784.72;;;11.14;70.21
47374;BME280;33123;50.118;10.272;2023-02-19T05:36:05;97789.16;;;11.08;70.21
47374;BME280;33123;50.118;10.272;2023-02-19T05:38:32;97778.19;;;11.21;69.95
47374;BME280;33123;50.118;10.272;2023-02-19T05:41:06;97748.25;;;11.05;69.79
47374;BME280;33123;50.118;10.272;2023-02-19T05:43:32;97782.88;;;11.14;70.12
47374;BME280;33123;50.118;10.272;2023-02-19T05:46:00;97782.22;;;11.02;70.11
47374;BME280;33123;50.118;10.272;2023-02-19T05:48:27;97772.28;;;10.87;70.41
47374;BME280;33123;50.118;10.272;2023-02-19T05:50:58;97781.09;;;11.20;69.65
47374;BME280;33123;50.118;10.272;2023-02-19T05:53:26;97775.56;;;11.21;69.44
47374;BME280;33123;50.118;10.272;2023-02-19T05:55:52;97772.00;;;10.83;70.39
47374;BME280;33123;50.118;10.272;2023-02-19T06:02:01;97793.22;;;11.21;69.46
47374;BME280;33123;50.118;10.272;2023-02-19T06:04:27;97792.75;;;11.24;69.37
47374;BME280;33123;50.118;10.272;2023-02-19T06:06:54;97790.00;;;11.14;69.48
47374;BME280;33123;50.118;10.272;2023-02-19T06:09:21;97799.75;;;11.13;69.51
47374;BME280;33123;50.118;10.272;2023-02-19T06:11:47;97796.63;;;11.16;69.65
47374;BME280;33123;50.118;10.272;2023-02-19T06:14:14;97812.75;;;11.20;69.14
47374;BME280;33123;50.118;10.272;2023-02-19T06:16:41;97800.81;;;11.12;69.16
47374;BME280;33123;50.118;10.272;2023-02-19T06:19:09;97796.91;;;11.20;69.02
47374;BME280;33123;50.118;10.272;2023-02-19T06:21:35;97802.19;;;11.20;69.78
47374;BME280;33123;50.118;10.272;2023-02-19T06:24:05;97810.84;;;11.15;69.79
47374;BME280;33123;50.118;10.272;2023-02-19T06:26:32;97806.38;;;11.16;69.53
47374;BME280;33123;50.118;10.272;2023-02-19T06:28:59;97804.16;;;10.86;70.44
47374;BME280;33123;50.118;10.272;2023-02-19T06:31:26;97816.19;;;10.98;70.17
47374;BME280;33123;50.118;10.272;2023-02-19T06:33:52;97797.00;;;11.03;69.92
47374;BME280;33123;50.118;10.272;2023-02-19T06:36:22;97815.97;;;11.22;69.63
47374;BME280;33123;50.118;10.272;2023-02-19T06:38:49;97822.81;;;11.23;69.69
47374;BME280;33123;50.118;10.272;2023-02-19T06:41:17;97810.06;;;11.15;69.69
47374;BME280;33123;50.118;10.272;2023-02-19T06:43:44;97826.38;;;11.12;69.86
47374;BME280;33123;50.118;10.272;2023-02-19T06:46:11;97827.72;;;11.14;69.82
47374;BME280;33123;50.118;10.272;2023-02-19T06:48:39;97837.16;;;11.10;69.83
47374;BME280;33123;50.118;10.272;2023-02-19T06:51:06;97849.41;;;11.16;69.74
47374;BME280;33123;50.118;10.272;2023-02-19T06:53:34;97854.41;;;11.18;69.76
47374;BME280;33123;50.118;10.272;2023-02-19T06:56:02;97860.56;;;11.23;69.39
47374;BME280;33123;50.118;10.272;2023-02-19T06:58:30;97858.16;;;11.22;69.65
47374;BME280;33123;50.118;10.272;2023-02-19T07:00:56;97867.59;;;11.18;69.88
47374;BME280;33123;50.118;10.272;2023-02-19T07:03:23;97871.38;;;11.22;69.91
47374;BME280;33123;50.118;10.272;2023-02-19T07:05:50;97874.28;;;11.25;69.73
47374;BME280;33123;50.118;10.272;2023-02-19T07:08:17;97884.03;;;11.25;70.03
47374;BME280;33123;50.118;10.272;2023-02-19T07:10:53;97890.13;;;11.25;70.28
47374;BME280;33123;50.118;10.272;2023-02-19T07:13:20;97896.50;;;11.07;71.03
47374;BME280;33123;50.118;10.272;2023-02-19T07:15:47;97900.84;;;11.19;70.64
47374;BME280;33123;50.118;10.272;2023-02-19T07:18:13;97897.69;;;11.17;70.67
47374;BME280;33123;50.118;10.272;2023-02-19T07:20:40;97901.66;;;11.19;70.98
47374;BME280;33123;50.118;10.272;2023-02-19T07:23:06;97889.50;;;11.18;71.09
47374;BME280;33123;50.118;10.272;2023-02-19T07:25:33;97892.91;;;10.97;71.86
47374;BME280;33123;50.118;10.272;2023-02-19T07:28:01;97910.16;;;11.04;71.92
47374;BME280;33123;50.118;10.272;2023-02-19T07:30:27;97909.75;;;11.13;71.21
47374;BME280;33123;50.118;10.272;2023-02-19T07:32:54;97909.03;;;11.17;71.34
47374;BME280;33123;50.118;10.272;2023-02-19T07:35:21;97919.38;;;11.24;71.31
47374;BME280;33123;50.118;10.272;2023-02-19T07:37:47;97908.00;;;11.01;71.28
47374;BME280;33123;50.118;10.272;2023-02-19T07:40:14;97923.56;;;11.20;70.77
47374;BME280;33123;50.118;10.272;2023-02-19T07:42:41;97924.66;;;11.24;70.75
47374;BME280;33123;50.118;10.272;2023-02-19T07:45:09;97923.25;;;11.16;70.79
47374;BME280;33123;50.118;10.272;2023-02-19T07:47:36;97929.50;;;11.32;70.62
47374;BME280;33123;50.118;10.272;2023-02-19T07:50:02;97930.88;;;11.34;70.67
47374;BME280;33123;50.118;10.272;2023-02-19T07:52:29;97931.16;;;11.38;70.34
47374;BME280;33123;50.118;10.272;2023-02-19T07:54:56;97933.94;;;11.48;70.11
47374;BME280;33123;50.118;10.272;2023-02-19T07:57:22;97943.34;;;11.39;69.52
47374;BME280;33123;50.118;10.272;2023-02-19T07:59:49;97939.47;;;11.47;69.74
47374;BME280;33123;50.118;10.272;2023-02-19T08:02:18;97951.94;;;11.51;69.36
47374;BME280;33123;50.118;10.272;2023-02-19T08:05:04;97921.22;;;11.23;70.30
47374;BME280;33123;50.118;10.272;2023-02-19T08:07:31;97943.47;;;11.49;70.70
47374;BME280;33123;50.118;10.272;2023-02-19T08:09:58;97924.63;;;11.41;70.49
47374;BME280;33123;50.118;10.272;2023-02-19T08:12:38;97949.91;;;11.58;71.05
47374;BME280;33123;50.118;10.272;2023-02-19T08:15:22;97951.75;;;11.58;70.81
47374;BME280;33123;50.118;10.272;2023-02-19T08:17:50;97956.97;;;11.53;70.93
47374;BME280;33123;50.118;10.272;2023-02-19T08:20:17;97967.16;;;11.44;71.04
47374;BME280;33123;50.118;10.272;2023-02-19T08:22:44;97963.94;;;11.42;71.06
47374;BME280;33123;50.118;10.272;2023-02-19T08:25:11;97970.75;;;11.38;71.04
47374;BME280;33123;50.118;10.272;2023-02-19T08:27:37;97983.47;;;11.41;71.56
47374;BME280;33123;50.118;10.272;2023-02-19T08:30:05;97986.03;;;11.36;72.32
47374;BME280;33123;50.118;10.272;2023-02-19T08:32:33;97982.78;;;11.29;71.65
47374;BME280;33123;50.118;10.272;2023-02-19T08:35:01;97987.88;;;11.35;71.97
47374;BME280;33123;50.118;10.272;2023-02-19T08:37:28;97994.38;;;11.28;72.32
47374;BME280;33123;50.118;10.272;2023-02-19T08:39:54;97994.38;;;11.28;72.34
47374;BME280;33123;50.118;10.272;2023-02-19T08:42:21;97992.94;;;11.20;72.33
47374;BME280;33123;50.118;10.272;2023-02-19T08:44:48;97996.38;;;11.21;72.67
47374;BME280;33123;50.118;10.272;2023-02-19T08:47:14;97995.81;;;11.19;72.42
47374;BME280;33123;50.118;10.272;2023-02-19T08:49:41;98003.91;;;11.12;72.39
47374;BME280;33123;50.118;10.272;2023-02-19T08:52:09;98015.81;;;11.15;72.48
47374;BME280;33123;50.118;10.272;2023-02-19T08:54:35;98010.47;;;11.09;72.55
47374;BME280;33123;50.118;10.272;2023-02-19T08:57:02;98033.72;;;11.13;72.11
47374;BME280;33123;50.118;10.272;2023-02-19T08:59:30;98025.50;;;11.09;72.72
47374;BME280;33123;50.118;10.272;2023-02-19T09:01:57;98030.84;;;11.14;72.63
47374;BME280;33123;50.118;10.272;2023-02-19T09:04:24;98040.59;;;11.14;72.55
47374;BME280;33123;50.118;10.272;2023-02-19T09:10:33;98041.00;;;11.05;73.36
47374;BME280;33123;50.118;10.272;2023-02-19T09:12:59;98052.44;;;11.11;73.16
47374;BME280;33123;50.118;10.272;2023-02-19T09:15:27;98044.53;;;10.94;73.23
47374;BME280;33123;50.118;10.272;2023-02-19T09:17:54;98049.94;;;11.04;73.57
47374;BME280;33123;50.118;10.272;2023-02-19T09:20:20;98058.44;;;11.06;73.69
47374;BME280;33123;50.118;10.272;2023-02-19T09:22:47;98049.72;;;10.89;73.81
47374;BME280;33123;50.118;10.272;2023-02-19T09:25:14;98061.78;;;11.02;73.40
47374;BME280;33123;50.118;10.272;2023-02-19T09:27:42;98058.44;;;11.06;73.71
47374;BME280;33123;50.118;10.272;2023-02-19T09:30:09;98062.50;;;11.14;74.02
47374;BME280;33123;50.118;10.272;2023-02-19T09:32:36;98066.81;;;11.20;73.97
47374;BME280;33123;50.118;10.272;2023-02-19T09:35:02;98051.56;;;11.05;73.47
47374;BME280;33123;50.118;10.272;2023-02-19T09:37:29;98064.25;;;11.25;73.49
47374;BME280;33123;50.118;10.272;2023-02-19T09:39:56;98066.50;;;11.17;72.92
47374;BME280;33123;50.118;10.272;2023-02-19T09:42:26;98069.78;;;11.24;72.67
47374;BME280;33123;50.118;10.272;2023-02-19T09:44:57;98073.22;;;11.24;72.68
47374;BME280;33123;50.118;10.272;2023-02-19T09:47:26;98091.94;;;11.23;72.86
47374;BME280;33123;50.118;10.272;2023-02-19T09:49:55;98093.34;;;11.30;72.96
47374;BME280;33123;50.118;10.272;2023-02-19T09:52:27;98098.97;;;11.34;73.14
47374;BME280;33123;50.118;10.272;2023-02-19T09:55:00;98095.81;;;11.37;73.52
47374;BME280;33123;50.118;10.272;2023-02-19T09:57:29;98099.75;;;11.34;72.89
47374;BME280;33123;50.118;10.272;2023-02-19T10:00:03;98110.41;;;11.40;73.05
47374;BME280;33123;50.118;10.272;2023-02-19T10:02:31;98077.63;;;11.19;72.81
47374;BME280;33123;50.118;10.272;2023-02-19T10:04:58;98104.88;;;11.41;72.75
47374;BME280;33123;50.118;10.272;2023-02-19T10:07:34;98099.13;;;11.44;73.31
47374;BME280;33123;50.118;10.272;2023-02-19T10:10:19;98092.00;;;11.45;73.42
47374;BME280;33123;50.118;10.272;2023-02-19T10:12:51;98094.94;;;11.48;73.12
47374;BME280;33123;50.118;10.272;2023-02-19T10:15:25;98100.88;;;11.55;73.91
47374;BME280;33123;50.118;10.272;2023-02-19T10:17:54;98098.94;;;11.68;73.63
47374;BME280;33123;50.118;10.272;2023-02-19T10:20:23;98102.91;;;11.70;72.43
47374;BME280;33123;50.118;10.272;2023-02-19T10:22:57;98112.81;;;11.80;72.00
47374;BME280;33123;50.118;10.272;2023-02-19T10:25:24;98110.22;;;11.63;71.66
47374;BME280;33123;50.118;10.272;2023-02-19T10:27:51;98108.50;;;11.74;71.24
47374;BME280;33123;50.118;10.272;2023-02-19T10:30:21;98110.03;;;11.70;71.37
47374;BME280;33123;50.118;10.272;2023-02-19T10:32:59;98121.00;;;11.78;70.48
47374;BME280;33123;50.118;10.272;2023-02-19T10:35:26;98124.75;;;11.82;70.90
47374;BME280;33123;50.118;10.272;2023-02-19T10:37:54;98127.72;;;11.86;71.05
47374;BME280;33123;50.118;10.272;2023-02-19T10:40:24;98135.31;;;11.82;70.24
47374;BME280;33123;50.118;10.272;2023-02-19T10:42:54;98128.34;;;11.76;70.25
47374;BME280;33123;50.118;10.272;2023-02-19T10:45:28;98135.72;;;11.74;70.12
47374;BME280;33123;50.118;10.272;2023-02-19T10:47:58;98131.88;;;11.82;70.39
47374;BME280;33123;50.118;10.272;2023-02-19T10:50:28;98132.75;;;11.71;70.37
47374;BME280;33123;50.118;10.272;2023-02-19T10:52:57;98143.38;;;11.76;70.21
47374;BME280;33123;50.118;10.272;2023-02-19T10:55:28;98134.31;;;11.83;70.12
47374;BME280;33123;50.118;10.272;2023-02-19T10:57:55;98138.44;;;11.79;69.69
47374;BME280;33123;50.118;10.272;2023-02-19T11:00:26;98152.03;;;11.88;69.03
47374;BME280;33123;50.118;10.272;2023-02-19T11:03:13;98151.81;;;11.89;69.97
47374;BME280;33123;50.118;10.272;2023-02-19T11:05:49;98170.06;;;11.91;70.05
47374;BME280;33123;50.118;10.272;2023-02-19T11:08:20;98169.09;;;11.97;69.38
47374;BME280;33123;50.118;10.272;2023-02-19T11:10:48;98167.38;;;12.08;69.50
47374;BME280;33123;50.118;10.272;2023-02-19T11:13:19;98174.06;;;12.15;67.97
47374;BME280;33123;50.118;10.272;2023-02-19T11:15:52;98174.72;;;12.23;68.39
47374;BME280;33123;50.118;10.272;2023-02-19T11:18:22;98170.25;;;12.23;68.21
47374;BME280;33123;50.118;10.272;2023-02-19T11:20:52;98140.63;;;12.04;68.69
47374;BME280;33123;50.118;10.272;2023-02-19T11:23:22;98184.44;;;12.17;68.56
47374;BME280;33123;50.118;10.272;2023-02-19T11:25:51;98173.28;;;12.15;68.94
47374;BME280;33123;50.118;10.272;2023-02-19T11:28:27;98186.28;;;12.17;69.23
47374;BME280;33123;50.118;10.272;2023-02-19T11:31:12;98206.25;;;12.29;69.04
47374;BME280;33123;50.118;10.272;2023-02-19T11:33:44;98189.88;;;12.32;68.93
47374;BME280;33123;50.118;10.272;2023-02-19T11:36:32;98191.00;;;12.36;69.06
47374;BME280;33123;50.118;10.272;2023-02-19T11:39:15;98190.22;;;12.36;68.64
47374;BME280;33123;50.118;10.272;2023-02-19T11:42:11;98186.38;;;12.27;67.78
47374;BME280;33123;50.118;10.272;2023-02-19T11:44:51;98177.44;;;12.28;68.96
47374;BME280;33123;50.118;10.272;2023-02-19T11:50:26;98187.69;;;12.24;69.51
47374;BME280;33123;50.118;10.272;2023-02-19T11:53:03;98185.28;;;12.23;69.19
47374;BME280;33123;50.118;10.272;2023-02-19T11:55:45;98190.81;;;12.43;69.15
47374;BME280;33123;50.118;10.272;2023-02-19T11:58:33;98176.53;;;12.39;68.94
47374;BME280;33123;50.118;10.272;2023-02-19T12:01:10;98173.38;;;12.42;68.58
47374;BME280;33123;50.118;10.272;2023-02-19T12:03:58;98180.16;;;12.33;67.81
47374;BME280;33123;50.118;10.272;2023-02-19T12:06:33;98168.13;;;12.25;67.98
47374;BME280;33123;50.118;10.272;2023-02-19T12:09:12;98179.75;;;12.24;67.85
47374;BME280;33123;50.118;10.272;2023-02-19T12:12:04;98186.88;;;12.24;67.92
47374;BME280;33123;50.118;10.272;2023-02-19T12:14:50;98177.56;;;12.16;67.89
47374;BME280;33123;50.118;10.272;2023-02-19T12:17:38;98186.75;;;12.13;67.65
47374;BME280;33123;50.118;10.272;2023-02-19T12:20:18;98185.94;;;12.13;67.35
47374;BME280;33123;50.118;10.272;2023-02-19T12:22:54;98163.25;;;11.95;67.24
47374;BME280;33123;50.118;10.272;2023-02-19T12:25:35;98176.34;;;12.07;67.39
47374;BME280;33123;50.118;10.272;2023-02-19T12:28:33;98173.47;;;12.08;66.98
47374;BME280;33123;50.118;10.272;2023-02-19T12:31:13;98183.22;;;12.08;66.50
47374;BME280;33123;50.118;10.272;2023-02-19T12:33:56;98199.81;;;12.03;66.78
47374;BME280;33123;50.118;10.272;2023-02-19T12:36:34;98206.22;;;12.07;67.51
47374;BME280;33123;50.118;10.272;2023-02-19T12:39:07;98203.41;;;12.14;67.40
47374;BME280;33123;50.118;10.272;2023-02-19T12:41:42;98204.53;;;12.18;67.12
47374;BME280;33123;50.118;10.272;2023-02-19T12:44:12;98197.47;;;12.24;67.31
47374;BME280;33123;50.118;10.272;2023-02-19T12:46:45;98202.56;;;12.30;66.18
47374;BME280;33123;50.118;10.272;2023-02-19T12:49:15;98190.53;;;12.39;65.35
47374;BME280;33123;50.118;10.272;2023-02-19T12:51:47;98193.38;;;12.55;65.57
47374;BME280;33123;50.118;10.272;2023-02-19T12:54:18;98188.38;;;12.58;63.26
47374;BME280;33123;50.118;10.272;2023-02-19T12:56:52;98200.66;;;12.69;63.25
47374;BME280;33123;50.118;10.272;2023-02-19T12:59:23;98195.69;;;12.73;63.07
47374;BME280;33123;50.118;10.272;2023-02-19T13:01:59;98192.47;;;12.71;63.00
47374;BME280;33123;50.118;10.272;2023-02-19T13:04:37;98190.22;;;12.80;63.15
47374;BME280;33123;50.118;10.272;2023-02-19T13:07:12;98191.75;;;12.76;62.33
47374;BME280;33123;50.118;10.272;2023-02-19T13:09:44;98149.16;;;12.50;62.45
47374;BME280;33123;50.118;10.272;2023-02-19T13:12:14;98183.41;;;12.62;62.77
47374;BME280;33123;50.118;10.272;2023-02-19T13:14:45;98178.91;;;12.62;63.01
47374;BME280;33123;50.118;10.272;2023-02-19T13:17:23;98183.09;;;12.58;63.45
47374;BME280;33123;50.118;10.272;2023-02-19T13:19:55;98193.47;;;12.65;62.83
47374;BME280;33123;50.118;10.272;2023-02-19T13:22:30;98181.00;;;12.60;62.82
47374;BME280;33123;50.118;10.272;2023-02-19T13:25:20;98185.97;;;12.57;63.40